This is the latest recevied weather packets stored in our database for station/object KO4ILY. If no packets are shown the sender has not sent any weather packets the latest 10 day(s).
| Time | Temp. | Humidity | Pressure | Rain* | Wind** | Luminosity | Snow |
|---|---|---|---|---|---|---|---|
| 1777276806 | 17.22° C | 80% | 1016.2 hPa | 0 mm | - | - | - |
| 1777273206 | 13.89° C | 89% | 1016.3 hPa | 0 mm | - | - | - |
| 1777269605 | 15° C | 86% | 1016 hPa | 0 mm | - | - | - |
| 1777266006 | 15.56° C | 84% | 1015.8 hPa | 0 mm | - | - | - |
| 1777262406 | 16.11° C | 80% | 1015.3 hPa | 0 mm | - | - | - |
| 1777258805 | 17.22° C | 75% | 1014.8 hPa | 0 mm | - | - | - |
| 1777255205 | 18.89° C | 71% | 1014.4 hPa | 0 mm | - | - | - |
| 1777251606 | 20° C | 67% | 1013.3 hPa | 0 mm | - | - | - |
| 1777248006 | 23.33° C | 57% | 1012.1 hPa | 0 mm | - | - | - |
| 1777244405 | 25° C | 50% | 1011.6 hPa | 0 mm | - | - | - |
| 1777240805 | 28.89° C | 42% | 1011.2 hPa | 0 mm | - | - | - |
| 1777237206 | 28.89° C | 47% | 1011.2 hPa | 0 mm | - | - | - |
| 1777233605 | 26.67° C | 54% | 1011.9 hPa | 0 mm | - | - | - |
| 1777230005 | 25.56° C | 62% | 1012.6 hPa | 0 mm | - | - | - |
| 1777226406 | 23.33° C | 70% | 1013.5 hPa | 0 mm | - | - | - |
| 1777222806 | 20.56° C | 76% | 1014.2 hPa | 0 mm | - | - | - |
| 1777219205 | 20° C | 79% | 1014.4 hPa | 0 mm | - | - | - |
| 1777215605 | 18.89° C | 82% | 1014.3 hPa | 0 mm | - | - | - |
| 1777212006 | 16.67° C | 91% | 1013.9 hPa | 0 mm | - | - | - |
| 1777208405 | 15° C | 97% | 1013.7 hPa | 0 mm | - | - | - |
| 1777204806 | 14.44° C | 97% | 1013.3 hPa | 0 mm | - | - | - |
| 1777201206 | 14.44° C | 97% | 1012.8 hPa | 0 mm | - | - | - |
| 1777197605 | 14.44° C | 96% | 1012.8 hPa | 0 mm | - | - | - |
* Rain latest hour (hover to see other rain measurements)
** Current wind speed in m/s (hover to see current wind gust speed)